createdAt,value
2018-06-22T00:02:04.862Z,87.83
2018-06-22T00:04:33.311Z,88.35
2018-06-22T00:07:01.758Z,89.46
2018-06-22T00:09:29.892Z,89.44
2018-06-22T00:11:58.009Z,89.25
2018-06-22T00:14:26.469Z,89.61
2018-06-22T00:16:54.949Z,89.96
2018-06-22T00:19:23.416Z,88.98
2018-06-22T00:21:51.853Z,88.95
2018-06-22T00:24:19.976Z,89.02
2018-06-22T00:26:48.445Z,89.52
2018-06-22T00:29:16.573Z,88.66
2018-06-22T00:31:45.037Z,88.82
2018-06-22T00:34:13.481Z,88.77
2018-06-22T00:36:41.593Z,88.48
2018-06-22T00:39:10.915Z,88.68
2018-06-22T00:41:39.394Z,88.48
2018-06-22T00:44:07.522Z,88.98
2018-06-22T00:46:36.229Z,88.84
2018-06-22T00:49:04.706Z,89.25
2018-06-22T00:51:33.153Z,89.20
2018-06-22T00:54:13.280Z,89.14
2018-06-22T00:56:41.405Z,89.08
2018-06-22T00:59:10.349Z,89.29
2018-06-22T01:01:38.785Z,89.53
2018-06-22T01:04:07.309Z,89.85
2018-06-22T01:06:35.782Z,89.08
2018-06-22T01:09:05.478Z,89.59
2018-06-22T01:11:33.593Z,89.84
2018-06-22T01:14:02.493Z,89.67
2018-06-22T01:16:30.933Z,90.09
2018-06-22T01:18:59.053Z,89.73
2018-06-22T01:21:27.501Z,88.90
2018-06-22T01:23:55.696Z,89.54
2018-06-22T01:26:24.053Z,89.65
2018-06-22T01:28:56.969Z,89.48
2018-06-22T01:31:25.438Z,89.17
2018-06-22T01:33:54.233Z,89.35
2018-06-22T01:36:22.354Z,89.75
2018-06-22T01:38:50.538Z,89.92
2018-06-22T01:41:18.861Z,90.12
2018-06-22T01:43:46.994Z,89.72
2018-06-22T01:46:15.125Z,90.41
2018-06-22T01:48:43.325Z,90.20
2018-06-22T01:51:11.426Z,90.20
2018-06-22T01:53:39.777Z,89.66
2018-06-22T01:56:07.904Z,89.81
2018-06-22T01:58:36.022Z,90.04
2018-06-22T02:01:04.473Z,90.08
2018-06-22T02:03:32.932Z,89.48
2018-06-22T02:06:01.253Z,90.02
2018-06-22T02:08:29.625Z,89.33
2018-06-22T02:10:58.066Z,89.39
2018-06-22T02:13:26.190Z,89.89
2018-06-22T02:15:54.641Z,90.08
2018-06-22T02:18:22.757Z,89.78
2018-06-22T02:20:51.201Z,89.82
2018-06-22T02:23:19.953Z,89.67
2018-06-22T02:25:48.409Z,89.57
2018-06-22T02:28:16.514Z,89.71
2018-06-22T02:30:44.982Z,89.83
2018-06-22T02:33:13.417Z,89.79
2018-06-22T02:35:41.538Z,90.43
2018-06-22T02:38:09.957Z,90.28
2018-06-22T02:40:38.090Z,90.27
2018-06-22T02:43:06.825Z,90.10
2018-06-22T02:45:35.277Z,90.38
2018-06-22T02:48:03.958Z,90.37
2018-06-22T02:50:32.117Z,90.33
2018-06-22T02:53:00.737Z,89.98
2018-06-22T02:55:29.202Z,89.98
2018-06-22T02:57:57.325Z,90.33
2018-06-22T03:00:25.781Z,90.06
2018-06-22T03:02:53.917Z,89.76
2018-06-22T03:05:22.379Z,89.90
2018-06-22T03:07:50.498Z,89.70
2018-06-22T03:10:18.945Z,89.98
2018-06-22T03:12:47.389Z,90.09
2018-06-22T03:15:15.842Z,90.74
2018-06-22T03:17:44.390Z,90.36
2018-06-22T03:20:12.855Z,90.02
2018-06-22T03:22:40.956Z,90.53
2018-06-22T03:25:09.270Z,91.08
2018-06-22T03:27:37.421Z,90.98
2018-06-22T03:30:06.162Z,91.69
2018-06-22T03:32:34.282Z,91.91
2018-06-22T03:35:02.422Z,92.58
2018-06-22T03:37:30.566Z,92.86
2018-06-22T03:39:58.705Z,92.95
2018-06-22T03:42:27.413Z,92.77
2018-06-22T03:44:55.565Z,93.49
2018-06-22T03:47:23.937Z,93.88
2018-06-22T03:49:52.098Z,93.69
2018-06-22T03:52:20.346Z,94.36
2018-06-22T03:54:48.722Z,94.35
2018-06-22T03:57:16.849Z,94.54
2018-06-22T03:59:45.027Z,94.50
2018-06-22T04:02:13.154Z,95.56
2018-06-22T04:04:41.305Z,95.20
2018-06-22T04:07:09.593Z,95.86
2018-06-22T04:09:37.728Z,96.31
2018-06-22T04:12:05.871Z,96.29
2018-06-22T04:14:34.541Z,96.45
2018-06-22T04:17:02.669Z,96.70
2018-06-22T04:19:30.825Z,97.24
2018-06-22T04:21:58.942Z,97.12
2018-06-22T04:24:27.433Z,97.31
2018-06-22T04:26:55.746Z,97.37
2018-06-22T04:29:24.221Z,97.45
2018-06-22T04:31:52.541Z,97.14
2018-06-22T04:34:20.693Z,97.38
2018-06-22T04:36:48.839Z,97.71
2018-06-22T04:39:17.296Z,98.17
2018-06-22T04:41:45.446Z,98.72
2018-06-22T04:44:13.566Z,98.74
2018-06-22T04:46:42.038Z,98.60
2018-06-22T04:49:10.177Z,98.59
2018-06-22T04:51:38.299Z,97.82
2018-06-22T04:54:06.762Z,97.82
2018-06-22T04:56:34.883Z,97.35
2018-06-22T04:59:03.386Z,96.67
2018-06-22T05:01:31.521Z,96.85
2018-06-22T05:03:59.991Z,96.50
2018-06-22T05:06:28.201Z,96.39
2018-06-22T05:08:56.510Z,95.95
2018-06-22T05:11:25.002Z,96.06
2018-06-22T05:13:53.133Z,95.89
2018-06-22T05:16:21.482Z,95.65
2018-06-22T05:18:49.966Z,95.75
2018-06-22T05:21:18.442Z,95.31
2018-06-22T05:23:46.559Z,95.09
2018-06-22T05:26:14.898Z,95.41
2018-06-22T05:28:45.917Z,95.66
2018-06-22T05:31:14.731Z,95.64
2018-06-22T05:33:43.404Z,96.02
2018-06-22T05:36:12.507Z,96.52
2018-06-22T05:38:40.967Z,96.78
2018-06-22T05:41:09.348Z,97.17
2018-06-22T05:43:38.215Z,97.00
2018-06-22T05:46:08.124Z,96.53
2018-06-22T05:48:36.755Z,97.22
2018-06-22T05:51:06.376Z,96.67
2018-06-22T05:53:37.532Z,96.57
2018-06-22T05:56:05.909Z,96.54
2018-06-22T05:58:34.292Z,96.52
2018-06-22T06:01:02.691Z,95.98
2018-06-22T06:03:31.947Z,95.59
2018-06-22T06:06:00.708Z,95.18
2018-06-22T06:08:29.218Z,95.42
2018-06-22T06:10:59.776Z,95.52
2018-06-22T06:13:28.291Z,95.55
2018-06-22T06:15:56.720Z,95.62
2018-06-22T06:18:25.401Z,95.80
2018-06-22T06:20:56.228Z,95.98
2018-06-22T06:23:24.797Z,96.07
2018-06-22T06:25:54.936Z,95.63
2018-06-22T06:28:24.234Z,95.28
2018-06-22T06:30:53.057Z,94.77
2018-06-22T06:33:22.074Z,95.22
2018-06-22T06:35:50.689Z,95.44
2018-06-22T06:38:19.154Z,94.61
2018-06-22T06:40:47.699Z,95.07
2018-06-22T06:43:16.407Z,93.20
2018-06-22T06:45:44.874Z,93.84
2018-06-22T06:48:13.428Z,94.21
2018-06-22T06:50:44.173Z,92.95
2018-06-22T06:53:13.605Z,91.70
2018-06-22T06:55:42.070Z,90.98
2018-06-22T06:58:10.616Z,89.91
2018-06-22T07:00:39.089Z,89.48
2018-06-22T07:03:07.639Z,89.39
2018-06-22T07:05:38.139Z,89.52
2018-06-22T07:08:09.072Z,91.40
2018-06-22T07:10:40.639Z,90.76
2018-06-22T07:13:09.067Z,90.47
2018-06-22T07:15:39.890Z,90.02
2018-06-22T07:18:09.455Z,91.15
2018-06-22T07:20:38.431Z,90.06
2018-06-22T07:23:07.310Z,89.80
2018-06-22T07:25:35.951Z,90.42
2018-06-22T07:28:04.349Z,90.24
2018-06-22T07:30:33.521Z,88.86
2018-06-22T07:33:03.738Z,88.45
2018-06-22T07:35:33.655Z,88.91
2018-06-22T07:38:02.090Z,89.18
2018-06-22T07:40:30.482Z,89.65
2018-06-22T07:42:59.323Z,89.46
2018-06-22T07:45:29.598Z,88.43
2018-06-22T07:47:58.062Z,88.38
2018-06-22T07:50:27.993Z,87.54
2018-06-22T07:52:56.126Z,87.62
2018-06-22T07:55:24.291Z,87.83
2018-06-22T07:57:52.456Z,85.88
2018-06-22T08:00:20.762Z,85.82
2018-06-22T08:02:48.896Z,85.34
2018-06-22T08:05:17.030Z,85.65
2018-06-22T08:07:45.508Z,85.99
2018-06-22T08:10:13.962Z,83.32
2018-06-22T08:12:42.106Z,81.96
2018-06-22T08:15:10.241Z,81.90
2018-06-22T08:17:38.368Z,82.93
2018-06-22T08:20:06.733Z,80.10
2018-06-22T08:22:34.890Z,79.04
2018-06-22T08:25:03.342Z,79.45
2018-06-22T08:27:31.498Z,78.05
2018-06-22T08:29:59.618Z,78.27
2018-06-22T08:32:27.877Z,77.96
2018-06-22T08:34:56.076Z,76.58
2018-06-22T08:37:24.346Z,76.26
2018-06-22T08:39:52.494Z,75.07
2018-06-22T08:42:21.202Z,75.00
2018-06-22T08:44:49.342Z,76.91
2018-06-22T08:47:17.466Z,76.76
2018-06-22T08:49:45.606Z,73.65
2018-06-22T08:52:13.766Z,72.86
2018-06-22T08:54:41.895Z,74.27
2018-06-22T08:57:10.353Z,74.10
2018-06-22T08:59:38.485Z,75.20
2018-06-22T09:02:06.982Z,75.38
2018-06-22T09:04:35.434Z,75.70
2018-06-22T09:07:03.929Z,75.32
2018-06-22T09:09:32.067Z,75.20
2018-06-22T09:12:00.547Z,76.77
2018-06-22T09:14:29.067Z,77.79
2018-06-22T09:16:57.381Z,81.63
2018-06-22T09:19:25.537Z,83.79
2018-06-22T09:21:53.990Z,84.74
2018-06-22T09:24:22.110Z,86.46
2018-06-22T09:26:50.248Z,89.21
2018-06-22T09:29:18.363Z,89.75
2018-06-22T09:31:46.836Z,88.30
2018-06-22T09:34:15.098Z,86.59
2018-06-22T09:36:43.582Z,85.23
2018-06-22T09:39:12.998Z,84.78
2018-06-22T09:41:41.357Z,85.54
2018-06-22T09:44:19.661Z,84.33
2018-06-22T09:46:47.810Z,82.34
2018-06-22T09:49:16.281Z,78.72
2018-06-22T09:51:44.402Z,74.49
2018-06-22T09:54:12.556Z,74.20
2018-06-22T09:56:40.681Z,74.27
2018-06-22T09:59:08.826Z,75.63
2018-06-22T10:01:36.966Z,74.22
2018-06-22T10:04:05.518Z,75.10
2018-06-22T10:06:33.634Z,75.19
2018-06-22T10:09:01.767Z,73.47
2018-06-22T10:11:30.298Z,72.72
2018-06-22T10:13:58.572Z,73.23
2018-06-22T10:16:26.896Z,71.82
2018-06-22T10:18:55.355Z,71.42
2018-06-22T10:21:23.805Z,67.30
2018-06-22T10:23:52.297Z,72.33
2018-06-22T10:26:20.431Z,76.08
2018-06-22T10:28:48.910Z,78.11
2018-06-22T10:31:17.073Z,77.47
2018-06-22T10:33:45.269Z,78.33
2018-06-22T10:36:13.858Z,79.47
2018-06-22T10:38:42.006Z,80.64
2018-06-22T10:41:10.147Z,80.92
2018-06-22T10:43:38.666Z,81.70
2018-06-22T10:46:06.811Z,82.72
2018-06-22T10:48:35.362Z,83.14
2018-06-22T10:51:03.546Z,84.12
2018-06-22T10:53:31.930Z,84.62
2018-06-22T10:56:00.074Z,85.24
2018-06-22T10:58:28.702Z,85.12
2018-06-22T11:00:57.161Z,83.78
2018-06-22T11:03:25.637Z,83.04
2018-06-22T11:05:53.806Z,82.31
2018-06-22T11:08:22.173Z,78.29
2018-06-22T11:10:50.641Z,77.45
2018-06-22T11:13:19.091Z,75.96
2018-06-22T11:15:47.441Z,76.17
2018-06-22T11:18:15.973Z,76.00
2018-06-22T11:20:44.614Z,77.17
2018-06-22T11:23:12.749Z,78.23
2018-06-22T11:25:41.437Z,77.48
2018-06-22T11:28:09.562Z,79.37
2018-06-22T11:30:38.039Z,80.17
2018-06-22T11:33:06.198Z,81.31
2018-06-22T11:35:34.338Z,82.92
2018-06-22T11:38:02.870Z,84.02
2018-06-22T11:40:31.643Z,85.89
2018-06-22T11:43:00.002Z,80.79
2018-06-22T11:45:29.126Z,79.37
2018-06-22T11:47:57.448Z,77.70
2018-06-22T11:50:26.190Z,78.31
2018-06-22T11:52:54.914Z,76.54
2018-06-22T11:55:23.365Z,75.73
2018-06-22T11:57:53.914Z,76.86
2018-06-22T12:00:22.383Z,75.90
2018-06-22T12:02:50.901Z,77.00
2018-06-22T12:05:19.446Z,73.83
2018-06-22T12:07:47.574Z,73.99
2018-06-22T12:10:16.074Z,70.63
2018-06-22T12:12:44.185Z,71.62
2018-06-22T12:15:12.533Z,65.37
2018-06-22T12:17:40.893Z,67.02
2018-06-22T12:20:09.598Z,67.58
2018-06-22T12:22:37.734Z,68.11
2018-06-22T12:25:06.094Z,68.57
2018-06-22T12:27:34.771Z,68.06
2018-06-22T12:30:03.410Z,67.39
2018-06-22T12:32:31.878Z,68.35
2018-06-22T12:35:00.024Z,68.84
2018-06-22T12:37:28.673Z,66.30
2018-06-22T12:39:57.143Z,66.89
2018-06-22T12:42:25.257Z,65.70
2018-06-22T12:44:53.682Z,64.84
2018-06-22T12:47:21.965Z,65.55
2018-06-22T12:49:50.118Z,64.68
2018-06-22T12:52:18.598Z,65.31
2018-06-22T12:54:47.057Z,64.42
2018-06-22T12:57:15.238Z,63.00
2018-06-22T12:59:43.694Z,60.82
2018-06-22T13:02:12.157Z,61.64
2018-06-22T13:04:40.718Z,61.81
2018-06-22T13:07:09.191Z,60.87
2018-06-22T13:09:37.342Z,57.37
2018-06-22T13:12:06.038Z,55.63
2018-06-22T13:14:35.044Z,58.08
2018-06-22T13:17:04.033Z,58.93
2018-06-22T13:19:32.690Z,59.65
2018-06-22T13:22:00.843Z,60.61
2018-06-22T13:24:28.967Z,59.07
2018-06-22T13:26:57.655Z,58.65
2018-06-22T13:29:26.266Z,57.81
2018-06-22T13:31:54.991Z,55.64
2018-06-22T13:34:23.290Z,55.22
2018-06-22T13:36:51.497Z,54.12
2018-06-22T13:39:19.958Z,55.99
2018-06-22T13:41:48.750Z,55.96
2018-06-22T13:44:16.869Z,57.20
2018-06-22T13:46:45.330Z,59.02
2018-06-22T13:49:13.809Z,59.63
2018-06-22T13:51:42.009Z,60.91
2018-06-22T13:54:10.677Z,60.22
2018-06-22T13:56:39.389Z,60.99
2018-06-22T13:59:07.551Z,59.96
2018-06-22T14:01:36.018Z,61.72
2018-06-22T14:04:09.719Z,61.77
2018-06-22T14:06:43.537Z,63.66
2018-06-22T14:09:13.317Z,64.61
2018-06-22T14:11:42.629Z,65.86
2018-06-22T14:14:10.868Z,67.06
2018-06-22T14:16:39.234Z,66.12
2018-06-22T14:19:07.830Z,65.60
2018-06-22T14:21:36.502Z,65.38
2018-06-22T14:24:05.143Z,64.54
2018-06-22T14:26:33.282Z,64.82
2018-06-22T14:29:01.524Z,62.52
2018-06-22T14:31:30.186Z,63.43
2018-06-22T14:33:58.553Z,60.72
2018-06-22T14:36:26.695Z,60.51
2018-06-22T14:38:55.707Z,59.81
2018-06-22T14:41:24.646Z,59.55
2018-06-22T14:43:53.114Z,56.71
2018-06-22T14:46:21.250Z,55.69
2018-06-22T14:48:50.125Z,55.44
2018-06-22T14:51:18.390Z,54.85
2018-06-22T14:53:52.034Z,56.05
2018-06-22T14:56:25.958Z,55.43
2018-06-22T14:58:59.806Z,57.03
2018-06-22T15:01:33.969Z,57.48
2018-06-22T15:04:07.385Z,56.88
2018-06-22T15:06:40.973Z,57.40
2018-06-22T15:09:09.837Z,56.44
2018-06-22T15:11:38.565Z,49.47
2018-06-22T15:14:07.278Z,48.38
2018-06-22T15:16:35.414Z,50.80
2018-06-22T15:19:04.115Z,52.71
2018-06-22T15:21:32.570Z,52.26
2018-06-22T15:24:01.299Z,51.87
2018-06-22T15:26:29.761Z,50.44
2018-06-22T15:28:58.595Z,51.99
2018-06-22T15:31:27.374Z,53.22
2018-06-22T15:34:01.306Z,53.75
2018-06-22T15:36:35.022Z,55.51
2018-06-22T15:39:12.357Z,56.62
2018-06-22T15:41:48.841Z,57.03
2018-06-22T15:44:23.125Z,57.47
2018-06-22T15:46:56.606Z,58.47
2018-06-22T15:49:30.564Z,59.10
2018-06-22T15:52:04.334Z,60.00
2018-06-22T15:54:37.922Z,59.82
2018-06-22T15:57:06.329Z,60.38
2018-06-22T15:59:35.186Z,60.30
2018-06-22T16:02:08.776Z,60.94
2018-06-22T16:04:37.177Z,59.77
2018-06-22T16:07:06.200Z,59.58
2018-06-22T16:09:39.025Z,59.64
2018-06-22T16:12:12.592Z,59.83
2018-06-22T16:14:46.733Z,59.51
2018-06-22T16:17:20.516Z,59.06
2018-06-22T16:19:54.322Z,59.20
2018-06-22T16:22:28.151Z,58.97
2018-06-22T16:25:02.205Z,60.77
2018-06-22T16:27:32.569Z,61.24
2018-06-22T16:30:01.221Z,61.87
2018-06-22T16:32:29.694Z,61.72
2018-06-22T16:34:58.094Z,62.20
2018-06-22T16:37:26.561Z,62.76
2018-06-22T16:39:55.043Z,62.32
2018-06-22T16:42:23.192Z,62.59
2018-06-22T16:44:51.677Z,59.66
2018-06-22T16:47:20.173Z,60.30
2018-06-22T16:49:48.763Z,61.15
2018-06-22T16:52:17.393Z,60.27
2018-06-22T16:54:45.707Z,61.03
2018-06-22T16:57:13.854Z,61.03
2018-06-22T16:59:42.320Z,61.21
2018-06-22T17:02:10.782Z,61.44
2018-06-22T17:04:39.458Z,62.00
2018-06-22T17:07:13.141Z,63.76
2018-06-22T17:09:47.088Z,63.02
2018-06-22T17:12:21.170Z,63.25
2018-06-22T17:14:54.801Z,63.53
2018-06-22T17:17:28.333Z,62.40
2018-06-22T17:19:57.010Z,62.06
2018-06-22T17:22:26.032Z,61.18
2018-06-22T17:24:54.518Z,61.87
2018-06-22T17:27:22.637Z,61.23
2018-06-22T17:29:51.183Z,60.94
2018-06-22T17:32:19.402Z,59.92
2018-06-22T17:34:47.564Z,59.88
2018-06-22T17:37:15.705Z,59.60
2018-06-22T17:39:43.858Z,60.14
2018-06-22T17:42:12.557Z,59.29
2018-06-22T17:44:41.354Z,59.50
2018-06-22T17:47:09.526Z,58.82
2018-06-22T17:49:37.737Z,59.29
2018-06-22T17:52:06.416Z,60.52
2018-06-22T17:57:28.310Z,60.71
2018-06-22T18:00:01.888Z,61.02
2018-06-22T18:02:35.749Z,61.82
2018-06-22T18:05:09.704Z,62.75
2018-06-22T18:07:44.296Z,63.72
2018-06-22T18:10:18.231Z,63.18
2018-06-22T18:12:47.954Z,64.25
2018-06-22T18:15:16.621Z,66.18
2018-06-22T18:17:44.939Z,66.26
2018-06-22T18:20:13.723Z,67.51
2018-06-22T18:22:42.555Z,67.06
2018-06-22T18:25:11.401Z,67.70
2018-06-22T18:27:39.765Z,67.96
2018-06-22T18:30:10.582Z,68.26
2018-06-22T18:32:38.985Z,67.18
2018-06-22T18:35:09.229Z,67.31
2018-06-22T18:37:39.378Z,67.40
2018-06-22T18:40:08.587Z,67.62
2018-06-22T18:42:36.918Z,67.25
2018-06-22T18:45:06.202Z,68.64
2018-06-22T18:47:34.689Z,69.78
2018-06-22T18:50:03.410Z,68.17
2018-06-22T18:52:37.177Z,68.78
2018-06-22T18:55:11.179Z,68.41
2018-06-22T18:57:45.358Z,68.28
2018-06-22T19:00:19.158Z,69.53
2018-06-22T19:02:53.290Z,70.35
2018-06-22T19:05:21.442Z,69.12
2018-06-22T19:07:49.585Z,68.47
2018-06-22T19:10:17.777Z,68.14
2018-06-22T19:12:46.210Z,68.04
2018-06-22T19:15:14.605Z,68.64
2018-06-22T19:17:42.774Z,68.81
2018-06-22T19:20:11.344Z,69.60
2018-06-22T19:22:40.290Z,69.36
2018-06-22T19:25:08.414Z,70.70
2018-06-22T19:27:36.998Z,69.82
2018-06-22T19:30:05.835Z,69.97
2018-06-22T19:32:34.295Z,70.16
2018-06-22T19:35:07.905Z,70.19
2018-06-22T19:37:36.381Z,70.15
2018-06-22T19:40:05.042Z,70.60
2018-06-22T19:42:33.442Z,70.55
2018-06-22T19:45:07.145Z,71.33
2018-06-22T19:47:41.263Z,70.73
2018-06-22T19:50:15.018Z,70.79
2018-06-22T19:52:48.618Z,70.65
2018-06-22T19:55:17.261Z,70.33
2018-06-22T19:57:45.745Z,70.58
2018-06-22T20:00:14.113Z,70.74
2018-06-22T20:02:42.815Z,72.05
2018-06-22T20:05:10.957Z,72.06
2018-06-22T20:07:39.434Z,70.76
2018-06-22T20:10:08.480Z,70.92
2018-06-22T20:12:36.631Z,71.72
2018-06-22T20:15:05.239Z,72.52
2018-06-22T20:17:33.952Z,72.51
2018-06-22T20:20:02.825Z,72.54
2018-06-22T20:22:30.986Z,72.79
2018-06-22T20:25:04.653Z,73.27
2018-06-22T20:27:33.245Z,73.63
2018-06-22T20:30:01.722Z,74.61
2018-06-22T20:32:30.452Z,73.24
2018-06-22T20:35:04.490Z,73.89
2018-06-22T20:37:38.481Z,73.70
2018-06-22T20:40:12.653Z,74.83
2018-06-22T20:42:48.930Z,75.50
2018-06-22T20:45:23.005Z,75.91
2018-06-22T20:47:56.847Z,75.97
2018-06-22T20:50:32.309Z,75.13
2018-06-22T20:53:00.703Z,76.09
2018-06-22T20:55:29.159Z,76.40
2018-06-22T20:57:57.594Z,77.63
2018-06-22T21:00:26.377Z,76.21
2018-06-22T21:02:54.898Z,76.27
2018-06-22T21:05:23.362Z,76.78
2018-06-22T21:07:51.556Z,77.03
2018-06-22T21:10:19.689Z,76.79
2018-06-22T21:12:47.947Z,77.95
2018-06-22T21:15:16.525Z,78.96
2018-06-22T21:17:45.008Z,78.62
2018-06-22T21:20:13.841Z,77.88
2018-06-22T21:22:42.360Z,77.58
2018-06-22T21:25:10.993Z,78.24
2018-06-22T21:27:44.802Z,79.17
2018-06-22T21:30:18.601Z,77.00
2018-06-22T21:32:52.233Z,77.35
2018-06-22T21:35:26.074Z,77.29
2018-06-22T21:38:00.197Z,77.24
2018-06-22T21:40:28.882Z,78.37
2018-06-22T21:42:57.373Z,77.56
2018-06-22T21:45:25.545Z,77.65
2018-06-22T21:47:54.019Z,78.31
2018-06-22T21:50:22.163Z,78.15
2018-06-22T21:52:50.545Z,77.81
2018-06-22T21:55:18.662Z,78.38
2018-06-22T21:57:46.833Z,77.12
2018-06-22T22:00:23.370Z,76.83
2018-06-22T22:02:51.846Z,76.75
2018-06-22T22:05:20.325Z,77.38
2018-06-22T22:07:48.822Z,77.41
2018-06-22T22:10:21.135Z,78.19
2018-06-22T22:12:49.622Z,77.30
2018-06-22T22:15:17.765Z,77.32
2018-06-22T22:17:45.902Z,78.08
2018-06-22T22:20:14.398Z,76.85
2018-06-22T22:22:42.846Z,75.92
2018-06-22T22:25:10.975Z,76.64
2018-06-22T22:27:39.445Z,78.07
2018-06-22T22:30:07.773Z,77.05
2018-06-22T22:32:35.889Z,76.82
2018-06-22T22:35:04.315Z,76.89
2018-06-22T22:37:33.221Z,75.80
2018-06-22T22:40:01.935Z,76.54
2018-06-22T22:42:30.587Z,76.48
2018-06-22T22:44:58.735Z,76.83
2018-06-22T22:47:26.871Z,77.21
2018-06-22T22:49:55.345Z,77.63
2018-06-22T22:52:23.797Z,77.58
2018-06-22T22:54:51.954Z,77.80
2018-06-22T22:57:20.143Z,78.70
2018-06-22T22:59:48.532Z,79.12
2018-06-22T23:02:16.817Z,79.43
2018-06-22T23:04:45.293Z,79.96
2018-06-22T23:07:13.443Z,80.19
2018-06-22T23:09:41.582Z,80.73
2018-06-22T23:12:09.963Z,80.00
2018-06-22T23:14:38.157Z,80.15
2018-06-22T23:17:06.818Z,80.92
2018-06-22T23:19:35.333Z,81.26
2018-06-22T23:22:04.035Z,81.47
2018-06-22T23:24:32.765Z,81.23
2018-06-22T23:27:01.237Z,81.85
2018-06-22T23:29:29.392Z,81.45
2018-06-22T23:31:57.851Z,81.89
2018-06-22T23:34:26.377Z,82.25
2018-06-22T23:36:55.111Z,81.99
2018-06-22T23:39:23.776Z,82.21
2018-06-22T23:41:52.240Z,83.03
2018-06-22T23:44:20.798Z,81.69
2018-06-22T23:46:49.257Z,82.54
2018-06-22T23:49:17.741Z,82.45
2018-06-22T23:51:46.246Z,82.65
2018-06-22T23:54:14.730Z,83.33
2018-06-22T23:56:43.210Z,82.69
2018-06-22T23:59:11.358Z,82.66
